sensor_id;sensor_type;location;lat;lon;timestamp;pressure;altitude;pressure_sealevel;temperature;humidity
71964;BME280;59834;52.124;5.422;2022-07-23T00:00:58;102010.78;;;15.45;75.64
71964;BME280;59834;52.124;5.422;2022-07-23T00:03:24;102007.03;;;15.35;76.18
71964;BME280;59834;52.124;5.422;2022-07-23T00:05:51;101997.09;;;15.26;76.11
71964;BME280;59834;52.124;5.422;2022-07-23T00:08:18;101996.03;;;15.28;76.45
71964;BME280;59834;52.124;5.422;2022-07-23T00:10:44;102004.16;;;15.25;76.60
71964;BME280;59834;52.124;5.422;2022-07-23T00:13:11;101999.28;;;15.19;77.32
71964;BME280;59834;52.124;5.422;2022-07-23T00:15:38;101999.19;;;15.21;77.29
71964;BME280;59834;52.124;5.422;2022-07-23T00:18:05;102006.25;;;15.20;78.01
71964;BME280;59834;52.124;5.422;2022-07-23T00:20:32;102009.38;;;15.13;78.57
71964;BME280;59834;52.124;5.422;2022-07-23T00:22:58;102006.94;;;15.09;78.12
71964;BME280;59834;52.124;5.422;2022-07-23T00:25:26;102003.34;;;15.11;78.15
71964;BME280;59834;52.124;5.422;2022-07-23T00:27:58;102005.88;;;15.12;78.25
71964;BME280;59834;52.124;5.422;2022-07-23T00:30:25;102006.31;;;15.06;78.87
71964;BME280;59834;52.124;5.422;2022-07-23T00:32:56;102000.47;;;15.01;78.94
71964;BME280;59834;52.124;5.422;2022-07-23T00:35:29;101992.47;;;15.02;78.99
71964;BME280;59834;52.124;5.422;2022-07-23T00:37:56;101990.66;;;15.03;78.75
71964;BME280;59834;52.124;5.422;2022-07-23T00:40:24;101989.72;;;15.04;78.61
71964;BME280;59834;52.124;5.422;2022-07-23T00:42:51;101989.84;;;15.02;78.90
71964;BME280;59834;52.124;5.422;2022-07-23T00:45:19;101999.69;;;14.99;78.95
71964;BME280;59834;52.124;5.422;2022-07-23T00:47:46;101993.78;;;14.95;79.26
71964;BME280;59834;52.124;5.422;2022-07-23T00:50:13;101987.00;;;14.91;79.15
71964;BME280;59834;52.124;5.422;2022-07-23T00:52:40;101982.69;;;14.90;79.58
71964;BME280;59834;52.124;5.422;2022-07-23T00:55:09;101974.78;;;14.90;79.33
71964;BME280;59834;52.124;5.422;2022-07-23T00:57:36;101981.66;;;14.93;79.75
71964;BME280;59834;52.124;5.422;2022-07-23T01:00:08;101976.56;;;14.90;79.87
71964;BME280;59834;52.124;5.422;2022-07-23T01:02:35;101985.16;;;14.79;80.01
71964;BME280;59834;52.124;5.422;2022-07-23T01:05:03;101970.13;;;14.67;80.26
71964;BME280;59834;52.124;5.422;2022-07-23T01:07:31;101974.16;;;14.58;80.61
71964;BME280;59834;52.124;5.422;2022-07-23T01:09:57;101972.00;;;14.50;80.60
71964;BME280;59834;52.124;5.422;2022-07-23T01:12:24;101975.00;;;14.44;80.99
71964;BME280;59834;52.124;5.422;2022-07-23T01:14:55;101969.81;;;14.43;81.22
71964;BME280;59834;52.124;5.422;2022-07-23T01:17:43;101976.00;;;14.42;81.08
71964;BME280;59834;52.124;5.422;2022-07-23T01:20:10;101977.81;;;14.41;81.40
71964;BME280;59834;52.124;5.422;2022-07-23T01:22:37;101979.72;;;14.39;81.62
71964;BME280;59834;52.124;5.422;2022-07-23T01:25:04;101965.88;;;14.35;81.58
71964;BME280;59834;52.124;5.422;2022-07-23T01:27:31;101969.53;;;14.33;82.00
71964;BME280;59834;52.124;5.422;2022-07-23T01:29:59;101970.56;;;14.30;81.58
71964;BME280;59834;52.124;5.422;2022-07-23T01:32:26;101963.50;;;14.31;81.34
71964;BME280;59834;52.124;5.422;2022-07-23T01:34:53;101961.72;;;14.31;81.51
71964;BME280;59834;52.124;5.422;2022-07-23T01:37:19;101960.88;;;14.31;80.99
71964;BME280;59834;52.124;5.422;2022-07-23T01:39:46;101960.03;;;14.30;81.53
71964;BME280;59834;52.124;5.422;2022-07-23T01:42:13;101962.59;;;14.32;81.36
71964;BME280;59834;52.124;5.422;2022-07-23T01:44:40;101954.78;;;14.30;80.93
71964;BME280;59834;52.124;5.422;2022-07-23T01:47:06;101956.44;;;14.31;81.08
71964;BME280;59834;52.124;5.422;2022-07-23T01:49:33;101959.28;;;14.28;81.15
71964;BME280;59834;52.124;5.422;2022-07-23T01:52:00;101960.22;;;14.27;81.70
71964;BME280;59834;52.124;5.422;2022-07-23T01:54:31;101964.75;;;14.25;81.73
71964;BME280;59834;52.124;5.422;2022-07-23T01:56:58;101964.19;;;14.20;82.31
71964;BME280;59834;52.124;5.422;2022-07-23T01:59:27;101958.44;;;14.13;81.97
71964;BME280;59834;52.124;5.422;2022-07-23T02:01:54;101965.38;;;14.14;82.31
71964;BME280;59834;52.124;5.422;2022-07-23T02:04:21;101962.19;;;14.09;82.85
71964;BME280;59834;52.124;5.422;2022-07-23T02:06:49;101964.44;;;14.01;82.52
71964;BME280;59834;52.124;5.422;2022-07-23T02:09:16;101966.56;;;13.95;82.91
71964;BME280;59834;52.124;5.422;2022-07-23T02:11:42;101956.69;;;13.84;82.83
71964;BME280;59834;52.124;5.422;2022-07-23T02:14:10;101961.47;;;13.77;83.50
71964;BME280;59834;52.124;5.422;2022-07-23T02:16:37;101963.25;;;13.77;83.09
71964;BME280;59834;52.124;5.422;2022-07-23T02:19:04;101961.28;;;13.80;83.08
71964;BME280;59834;52.124;5.422;2022-07-23T02:21:30;101954.25;;;13.81;82.94
71964;BME280;59834;52.124;5.422;2022-07-23T02:23:57;101959.97;;;13.73;82.76
71964;BME280;59834;52.124;5.422;2022-07-23T02:26:23;101961.28;;;13.66;83.20
71964;BME280;59834;52.124;5.422;2022-07-23T02:28:50;101951.88;;;13.62;82.83
71964;BME280;59834;52.124;5.422;2022-07-23T02:31:16;101952.22;;;13.56;83.23
71964;BME280;59834;52.124;5.422;2022-07-23T02:33:43;101961.91;;;13.55;83.24
71964;BME280;59834;52.124;5.422;2022-07-23T02:36:10;101962.09;;;13.52;83.84
71964;BME280;59834;52.124;5.422;2022-07-23T02:38:36;101966.00;;;13.45;83.75
71964;BME280;59834;52.124;5.422;2022-07-23T02:41:03;101963.53;;;13.42;83.96
71964;BME280;59834;52.124;5.422;2022-07-23T02:43:30;101958.28;;;13.42;84.08
71964;BME280;59834;52.124;5.422;2022-07-23T02:45:57;101958.78;;;13.49;83.83
71964;BME280;59834;52.124;5.422;2022-07-23T02:48:24;101946.38;;;13.51;83.82
71964;BME280;59834;52.124;5.422;2022-07-23T02:50:50;101956.81;;;13.52;83.22
71964;BME280;59834;52.124;5.422;2022-07-23T02:53:18;101971.94;;;13.49;84.04
71964;BME280;59834;52.124;5.422;2022-07-23T02:55:45;101972.00;;;13.47;84.17
71964;BME280;59834;52.124;5.422;2022-07-23T02:58:12;101966.00;;;13.45;83.95
71964;BME280;59834;52.124;5.422;2022-07-23T03:00:38;101966.06;;;13.43;83.88
71964;BME280;59834;52.124;5.422;2022-07-23T03:03:07;101971.59;;;13.39;83.82
71964;BME280;59834;52.124;5.422;2022-07-23T03:05:35;101961.34;;;13.34;83.90
71964;BME280;59834;52.124;5.422;2022-07-23T03:08:01;101976.09;;;13.37;83.98
71964;BME280;59834;52.124;5.422;2022-07-23T03:10:28;101977.22;;;13.33;84.15
71964;BME280;59834;52.124;5.422;2022-07-23T03:12:54;101996.97;;;13.24;84.44
71964;BME280;59834;52.124;5.422;2022-07-23T03:15:21;101993.63;;;13.20;84.78
71964;BME280;59834;52.124;5.422;2022-07-23T03:17:48;101993.63;;;13.20;84.15
71964;BME280;59834;52.124;5.422;2022-07-23T03:20:15;101994.84;;;13.15;83.94
71964;BME280;59834;52.124;5.422;2022-07-23T03:22:42;101980.09;;;13.12;84.11
71964;BME280;59834;52.124;5.422;2022-07-23T03:25:08;101985.50;;;13.09;83.91
71964;BME280;59834;52.124;5.422;2022-07-23T03:27:35;101983.66;;;13.11;83.94
71964;BME280;59834;52.124;5.422;2022-07-23T03:30:02;101990.78;;;13.09;84.73
71964;BME280;59834;52.124;5.422;2022-07-23T03:32:29;101992.56;;;13.09;84.25
71964;BME280;59834;52.124;5.422;2022-07-23T03:34:56;101991.78;;;13.07;84.64
71964;BME280;59834;52.124;5.422;2022-07-23T03:37:23;102001.56;;;13.05;84.93
71964;BME280;59834;52.124;5.422;2022-07-23T03:39:50;101999.78;;;13.05;84.53
71964;BME280;59834;52.124;5.422;2022-07-23T03:42:16;102005.03;;;13.05;84.96
71964;BME280;59834;52.124;5.422;2022-07-23T03:44:43;101999.94;;;13.02;84.44
71964;BME280;59834;52.124;5.422;2022-07-23T03:47:10;102000.78;;;13.03;84.83
71964;BME280;59834;52.124;5.422;2022-07-23T03:49:36;101999.94;;;13.02;84.39
71964;BME280;59834;52.124;5.422;2022-07-23T03:52:03;102001.97;;;12.97;84.39
71964;BME280;59834;52.124;5.422;2022-07-23T03:54:30;101993.31;;;12.95;84.47
71964;BME280;59834;52.124;5.422;2022-07-23T03:56:57;101993.56;;;12.90;83.86
71964;BME280;59834;52.124;5.422;2022-07-23T03:59:23;101983.31;;;12.86;83.99
71964;BME280;59834;52.124;5.422;2022-07-23T04:01:50;101985.94;;;12.86;83.81
71964;BME280;59834;52.124;5.422;2022-07-23T04:04:17;101980.34;;;12.92;84.10
71964;BME280;59834;52.124;5.422;2022-07-23T04:06:44;101980.03;;;12.98;83.84
71964;BME280;59834;52.124;5.422;2022-07-23T04:09:10;101985.09;;;13.01;84.02
71964;BME280;59834;52.124;5.422;2022-07-23T04:11:37;101984.16;;;13.02;83.87
71964;BME280;59834;52.124;5.422;2022-07-23T04:14:04;101984.00;;;13.05;84.01
71964;BME280;59834;52.124;5.422;2022-07-23T04:16:30;101980.94;;;13.13;83.63
71964;BME280;59834;52.124;5.422;2022-07-23T04:18:58;101978.63;;;13.23;83.53
71964;BME280;59834;52.124;5.422;2022-07-23T04:21:25;101984.34;;;13.31;82.71
71964;BME280;59834;52.124;5.422;2022-07-23T04:23:52;101974.47;;;13.34;82.31
71964;BME280;59834;52.124;5.422;2022-07-23T04:26:18;101978.91;;;13.34;81.63
71964;BME280;59834;52.124;5.422;2022-07-23T04:28:45;101980.41;;;13.38;82.01
71964;BME280;59834;52.124;5.422;2022-07-23T04:31:12;101982.78;;;13.42;81.38
71964;BME280;59834;52.124;5.422;2022-07-23T04:33:40;101979.53;;;13.53;81.30
71964;BME280;59834;52.124;5.422;2022-07-23T04:36:08;101983.69;;;13.57;81.20
71964;BME280;59834;52.124;5.422;2022-07-23T04:38:34;101984.75;;;14.13;79.91
71964;BME280;59834;52.124;5.422;2022-07-23T04:41:01;101976.81;;;15.53;74.93
71964;BME280;59834;52.124;5.422;2022-07-23T04:43:28;101982.69;;;15.71;72.77
71964;BME280;59834;52.124;5.422;2022-07-23T04:45:55;101989.47;;;15.21;73.56
71964;BME280;59834;52.124;5.422;2022-07-23T04:48:21;101991.97;;;15.37;74.53
71964;BME280;59834;52.124;5.422;2022-07-23T04:50:48;101993.44;;;16.83;71.06
71964;BME280;59834;52.124;5.422;2022-07-23T04:53:15;101978.56;;;17.89;66.56
71964;BME280;59834;52.124;5.422;2022-07-23T04:55:42;101989.81;;;18.60;63.96
71964;BME280;59834;52.124;5.422;2022-07-23T04:58:09;101991.47;;;19.06;62.03
71964;BME280;59834;52.124;5.422;2022-07-23T05:00:40;101989.97;;;19.57;60.86
71964;BME280;59834;52.124;5.422;2022-07-23T05:03:22;101984.16;;;20.05;60.02
71964;BME280;59834;52.124;5.422;2022-07-23T05:06:04;101983.31;;;20.56;57.74
71964;BME280;59834;52.124;5.422;2022-07-23T05:08:31;101983.66;;;20.82;56.42
71964;BME280;59834;52.124;5.422;2022-07-23T05:10:57;101980.88;;;20.84;56.69
71964;BME280;59834;52.124;5.422;2022-07-23T05:13:24;101980.59;;;20.87;56.36
71964;BME280;59834;52.124;5.422;2022-07-23T05:15:50;101983.16;;;21.08;56.50
71964;BME280;59834;52.124;5.422;2022-07-23T05:18:17;101994.00;;;21.64;54.60
71964;BME280;59834;52.124;5.422;2022-07-23T05:20:43;101986.50;;;22.07;53.47
71964;BME280;59834;52.124;5.422;2022-07-23T05:23:10;101991.72;;;22.36;53.51
71964;BME280;59834;52.124;5.422;2022-07-23T05:25:36;101991.66;;;22.55;52.54
71964;BME280;59834;52.124;5.422;2022-07-23T05:28:03;101987.41;;;22.63;52.27
71964;BME280;59834;52.124;5.422;2022-07-23T05:30:30;101989.97;;;22.82;52.37
71964;BME280;59834;52.124;5.422;2022-07-23T05:32:56;101997.91;;;23.01;51.99
71964;BME280;59834;52.124;5.422;2022-07-23T05:35:23;102003.78;;;23.05;51.23
71964;BME280;59834;52.124;5.422;2022-07-23T05:37:50;102002.00;;;23.14;51.33
71964;BME280;59834;52.124;5.422;2022-07-23T05:40:19;101999.66;;;23.28;51.05
71964;BME280;59834;52.124;5.422;2022-07-23T05:42:45;101999.53;;;23.48;50.00
71964;BME280;59834;52.124;5.422;2022-07-23T05:45:11;101996.84;;;23.48;50.36
71964;BME280;59834;52.124;5.422;2022-07-23T05:47:46;101996.81;;;23.84;50.23
71964;BME280;59834;52.124;5.422;2022-07-23T05:50:14;102004.41;;;23.96;50.01
71964;BME280;59834;52.124;5.422;2022-07-23T05:52:41;102003.78;;;24.03;48.81
71964;BME280;59834;52.124;5.422;2022-07-23T05:55:10;102009.91;;;24.21;48.29
71964;BME280;59834;52.124;5.422;2022-07-23T05:57:37;102019.53;;;24.06;48.92
71964;BME280;59834;52.124;5.422;2022-07-23T06:00:05;102016.16;;;23.78;48.94
71964;BME280;59834;52.124;5.422;2022-07-23T06:02:32;102011.41;;;23.53;49.30
71964;BME280;59834;52.124;5.422;2022-07-23T06:04:58;102010.97;;;23.58;49.77
71964;BME280;59834;52.124;5.422;2022-07-23T06:07:25;102012.94;;;23.74;48.36
71964;BME280;59834;52.124;5.422;2022-07-23T06:09:51;102008.75;;;23.71;48.83
71964;BME280;59834;52.124;5.422;2022-07-23T06:12:18;102009.06;;;23.68;48.86
71964;BME280;59834;52.124;5.422;2022-07-23T06:14:45;102006.94;;;23.72;48.95
71964;BME280;59834;52.124;5.422;2022-07-23T06:17:11;102015.13;;;23.96;48.64
71964;BME280;59834;52.124;5.422;2022-07-23T06:19:38;102016.91;;;23.88;48.37
71964;BME280;59834;52.124;5.422;2022-07-23T06:22:04;102011.41;;;23.89;47.82
71964;BME280;59834;52.124;5.422;2022-07-23T06:24:31;102014.78;;;23.56;48.99
71964;BME280;59834;52.124;5.422;2022-07-23T06:26:57;102013.63;;;23.58;49.34
71964;BME280;59834;52.124;5.422;2022-07-23T06:29:24;102014.47;;;23.76;48.79
71964;BME280;59834;52.124;5.422;2022-07-23T06:31:50;102009.06;;;23.68;48.92
71964;BME280;59834;52.124;5.422;2022-07-23T06:34:17;102018.03;;;23.67;49.72
71964;BME280;59834;52.124;5.422;2022-07-23T06:36:43;102012.16;;;23.64;50.31
71964;BME280;59834;52.124;5.422;2022-07-23T06:39:11;102019.19;;;23.65;50.61
71964;BME280;59834;52.124;5.422;2022-07-23T06:41:38;102018.16;;;23.58;50.47
71964;BME280;59834;52.124;5.422;2022-07-23T06:44:04;102016.66;;;23.63;50.24
71964;BME280;59834;52.124;5.422;2022-07-23T06:46:31;102022.41;;;23.86;49.69
71964;BME280;59834;52.124;5.422;2022-07-23T06:48:58;102025.16;;;23.94;49.52
71964;BME280;59834;52.124;5.422;2022-07-23T06:51:27;102024.88;;;24.06;49.30
71964;BME280;59834;52.124;5.422;2022-07-23T06:53:53;102018.47;;;23.98;49.63
71964;BME280;59834;52.124;5.422;2022-07-23T06:56:20;102024.34;;;24.02;48.54
71964;BME280;59834;52.124;5.422;2022-07-23T06:58:47;102020.97;;;24.18;48.89
71964;BME280;59834;52.124;5.422;2022-07-23T07:01:13;102025.69;;;23.80;48.27
71964;BME280;59834;52.124;5.422;2022-07-23T07:03:40;102022.53;;;23.13;49.39
71964;BME280;59834;52.124;5.422;2022-07-23T07:06:06;102017.66;;;23.09;49.48
71964;BME280;59834;52.124;5.422;2022-07-23T07:08:34;102031.31;;;23.05;49.81
71964;BME280;59834;52.124;5.422;2022-07-23T07:11:00;102029.34;;;23.25;49.16
71964;BME280;59834;52.124;5.422;2022-07-23T07:13:27;102037.91;;;23.47;48.93
71964;BME280;59834;52.124;5.422;2022-07-23T07:15:53;102024.38;;;22.85;50.36
71964;BME280;59834;52.124;5.422;2022-07-23T07:18:21;102038.66;;;22.29;53.05
71964;BME280;59834;52.124;5.422;2022-07-23T07:20:48;102043.91;;;21.72;52.57
71964;BME280;59834;52.124;5.422;2022-07-23T07:23:16;102041.19;;;21.14;54.20
71964;BME280;59834;52.124;5.422;2022-07-23T07:25:42;102043.34;;;20.80;55.51
71964;BME280;59834;52.124;5.422;2022-07-23T07:28:09;102042.63;;;20.78;55.88
71964;BME280;59834;52.124;5.422;2022-07-23T07:30:35;102053.69;;;20.52;56.51
71964;BME280;59834;52.124;5.422;2022-07-23T07:33:02;102057.03;;;20.23;56.94
71964;BME280;59834;52.124;5.422;2022-07-23T07:35:30;102050.53;;;20.37;56.61
71964;BME280;59834;52.124;5.422;2022-07-23T07:37:59;102062.28;;;20.65;55.68
71964;BME280;59834;52.124;5.422;2022-07-23T07:40:26;102060.72;;;20.84;55.88
71964;BME280;59834;52.124;5.422;2022-07-23T07:42:59;102057.94;;;20.95;54.54
71964;BME280;59834;52.124;5.422;2022-07-23T07:45:26;102054.56;;;20.93;53.93
71964;BME280;59834;52.124;5.422;2022-07-23T07:47:53;102058.50;;;20.99;54.49
71964;BME280;59834;52.124;5.422;2022-07-23T07:50:21;102061.06;;;21.10;53.79
71964;BME280;59834;52.124;5.422;2022-07-23T07:52:48;102057.09;;;20.94;53.19
71964;BME280;59834;52.124;5.422;2022-07-23T07:55:14;102066.22;;;20.61;52.41
71964;BME280;59834;52.124;5.422;2022-07-23T07:57:44;102065.84;;;20.76;52.64
71964;BME280;59834;52.124;5.422;2022-07-23T08:00:15;102066.56;;;20.78;53.46
71964;BME280;59834;52.124;5.422;2022-07-23T08:02:44;102063.88;;;20.47;53.99
71964;BME280;59834;52.124;5.422;2022-07-23T08:05:12;102068.09;;;20.29;54.36
71964;BME280;59834;52.124;5.422;2022-07-23T08:07:39;102067.66;;;20.23;55.05
71964;BME280;59834;52.124;5.422;2022-07-23T08:10:09;102079.78;;;20.16;55.41
71964;BME280;59834;52.124;5.422;2022-07-23T08:12:43;102082.38;;;20.28;55.30
71964;BME280;59834;52.124;5.422;2022-07-23T08:15:15;102074.41;;;20.28;54.65
71964;BME280;59834;52.124;5.422;2022-07-23T08:17:43;102070.19;;;20.46;54.35
71964;BME280;59834;52.124;5.422;2022-07-23T08:20:12;102076.84;;;20.61;54.40
71964;BME280;59834;52.124;5.422;2022-07-23T08:22:45;102072.28;;;20.73;53.59
71964;BME280;59834;52.124;5.422;2022-07-23T08:25:13;102078.19;;;20.77;53.64
71964;BME280;59834;52.124;5.422;2022-07-23T08:27:40;102073.81;;;20.66;52.99
71964;BME280;59834;52.124;5.422;2022-07-23T08:30:08;102079.69;;;20.69;54.68
71964;BME280;59834;52.124;5.422;2022-07-23T08:33:32;102082.00;;;20.84;53.57
71964;BME280;59834;52.124;5.422;2022-07-23T08:35:36;102077.84;;;21.01;53.43
71964;BME280;59834;52.124;5.422;2022-07-23T08:38:06;102077.47;;;21.15;52.95
71964;BME280;59834;52.124;5.422;2022-07-23T08:40:35;102077.47;;;21.25;52.42
71964;BME280;59834;52.124;5.422;2022-07-23T08:43:14;102080.97;;;21.25;52.47
71964;BME280;59834;52.124;5.422;2022-07-23T08:45:42;102078.50;;;21.33;51.94
71964;BME280;59834;52.124;5.422;2022-07-23T08:48:23;102077.72;;;21.12;53.16
71964;BME280;59834;52.124;5.422;2022-07-23T08:50:52;102074.97;;;21.23;52.01
71964;BME280;59834;52.124;5.422;2022-07-23T08:53:21;102069.91;;;21.10;52.59
71964;BME280;59834;52.124;5.422;2022-07-23T08:55:52;102070.63;;;21.32;52.80
71964;BME280;59834;52.124;5.422;2022-07-23T08:58:19;102072.44;;;21.22;51.22
71964;BME280;59834;52.124;5.422;2022-07-23T09:00:54;102081.88;;;20.95;51.99
71964;BME280;59834;52.124;5.422;2022-07-23T09:03:28;102073.06;;;21.35;52.70
71964;BME280;59834;52.124;5.422;2022-07-23T09:05:57;102079.69;;;21.60;51.06
71964;BME280;59834;52.124;5.422;2022-07-23T09:08:37;102076.59;;;21.64;50.95
71964;BME280;59834;52.124;5.422;2022-07-23T09:11:08;102075.03;;;21.52;49.50
71964;BME280;59834;52.124;5.422;2022-07-23T09:16:25;102085.03;;;21.70;50.13
71964;BME280;59834;52.124;5.422;2022-07-23T09:18:52;102088.94;;;21.75;48.76
71964;BME280;59834;52.124;5.422;2022-07-23T09:21:29;102089.63;;;21.68;48.80
71964;BME280;59834;52.124;5.422;2022-07-23T09:24:12;102077.97;;;21.49;49.06
71964;BME280;59834;52.124;5.422;2022-07-23T09:26:43;102076.56;;;21.55;48.84
71964;BME280;59834;52.124;5.422;2022-07-23T09:29:18;102078.81;;;21.79;49.30
71964;BME280;59834;52.124;5.422;2022-07-23T09:31:52;102076.84;;;22.10;50.10
71964;BME280;59834;52.124;5.422;2022-07-23T09:34:23;102076.44;;;22.24;48.04
71964;BME280;59834;52.124;5.422;2022-07-23T09:37:11;102080.38;;;21.91;49.89
71964;BME280;59834;52.124;5.422;2022-07-23T09:39:40;102084.03;;;21.90;49.85
71964;BME280;59834;52.124;5.422;2022-07-23T09:42:20;102086.97;;;21.97;49.07
71964;BME280;59834;52.124;5.422;2022-07-23T09:44:50;102082.50;;;22.17;48.77
71964;BME280;59834;52.124;5.422;2022-07-23T09:47:17;102081.75;;;22.34;48.36
71964;BME280;59834;52.124;5.422;2022-07-23T09:50:04;102082.25;;;22.57;48.39
71964;BME280;59834;52.124;5.422;2022-07-23T09:52:34;102086.63;;;22.48;47.73
71964;BME280;59834;52.124;5.422;2022-07-23T09:55:04;102083.72;;;22.32;48.26
71964;BME280;59834;52.124;5.422;2022-07-23T09:57:32;102085.63;;;22.49;47.62
71964;BME280;59834;52.124;5.422;2022-07-23T10:00:06;102084.13;;;22.37;47.96
71964;BME280;59834;52.124;5.422;2022-07-23T10:02:35;102084.72;;;22.21;48.60
71964;BME280;59834;52.124;5.422;2022-07-23T10:05:03;102080.28;;;22.49;47.75
71964;BME280;59834;52.124;5.422;2022-07-23T10:07:35;102078.16;;;22.53;47.83
71964;BME280;59834;52.124;5.422;2022-07-23T10:10:03;102074.28;;;22.47;47.94
71964;BME280;59834;52.124;5.422;2022-07-23T10:12:31;102083.50;;;22.53;48.04
71964;BME280;59834;52.124;5.422;2022-07-23T10:15:00;102080.69;;;22.54;48.94
71964;BME280;59834;52.124;5.422;2022-07-23T10:17:28;102081.56;;;22.45;47.86
71964;BME280;59834;52.124;5.422;2022-07-23T10:19:55;102075.88;;;22.68;47.71
71964;BME280;59834;52.124;5.422;2022-07-23T10:22:31;102074.66;;;22.52;47.07
71964;BME280;59834;52.124;5.422;2022-07-23T10:25:15;102070.53;;;22.30;48.07
71964;BME280;59834;52.124;5.422;2022-07-23T10:30:41;102077.97;;;22.74;47.43
71964;BME280;59834;52.124;5.422;2022-07-23T10:36:30;102076.38;;;22.81;47.79
71964;BME280;59834;52.124;5.422;2022-07-23T10:39:04;102076.25;;;22.73;46.43
71964;BME280;59834;52.124;5.422;2022-07-23T10:41:37;102073.94;;;22.97;47.33
71964;BME280;59834;52.124;5.422;2022-07-23T10:49:42;102071.34;;;22.78;46.23
71964;BME280;59834;52.124;5.422;2022-07-23T10:57:13;102058.19;;;23.04;44.83
71964;BME280;59834;52.124;5.422;2022-07-23T11:02:36;102061.47;;;22.88;46.14
71964;BME280;59834;52.124;5.422;2022-07-23T11:05:11;102074.00;;;22.78;45.01
71964;BME280;59834;52.124;5.422;2022-07-23T11:10:38;102069.09;;;23.11;45.33
71964;BME280;59834;52.124;5.422;2022-07-23T11:24:09;102058.69;;;23.89;44.30
71964;BME280;59834;52.124;5.422;2022-07-23T11:26:57;102053.25;;;23.98;45.75
71964;BME280;59834;52.124;5.422;2022-07-23T11:32:04;102052.34;;;24.16;44.03
71964;BME280;59834;52.124;5.422;2022-07-23T11:34:38;102052.16;;;24.09;45.56
71964;BME280;59834;52.124;5.422;2022-07-23T11:37:07;102062.06;;;24.17;44.07
71964;BME280;59834;52.124;5.422;2022-07-23T11:39:35;102060.94;;;24.28;44.38
71964;BME280;59834;52.124;5.422;2022-07-23T11:42:05;102059.34;;;24.09;43.47
71964;BME280;59834;52.124;5.422;2022-07-23T11:44:38;102061.69;;;24.12;45.12
71964;BME280;59834;52.124;5.422;2022-07-23T11:47:07;102066.44;;;24.18;44.34
71964;BME280;59834;52.124;5.422;2022-07-23T11:49:34;102057.53;;;24.17;44.51
71964;BME280;59834;52.124;5.422;2022-07-23T11:52:14;102061.50;;;24.31;43.58
71964;BME280;59834;52.124;5.422;2022-07-23T11:54:56;102056.03;;;24.15;43.60
71964;BME280;59834;52.124;5.422;2022-07-23T11:57:26;102062.69;;;24.11;43.65
71964;BME280;59834;52.124;5.422;2022-07-23T11:59:56;102051.63;;;24.06;43.54
71964;BME280;59834;52.124;5.422;2022-07-23T12:02:23;102049.50;;;24.17;43.78
71964;BME280;59834;52.124;5.422;2022-07-23T12:04:51;102050.25;;;24.02;45.12
71964;BME280;59834;52.124;5.422;2022-07-23T12:07:39;102051.81;;;23.86;46.63
71964;BME280;59834;52.124;5.422;2022-07-23T12:10:16;102054.88;;;23.91;45.14
71964;BME280;59834;52.124;5.422;2022-07-23T12:13:04;102059.97;;;24.03;45.47
71964;BME280;59834;52.124;5.422;2022-07-23T12:15:34;102054.34;;;23.88;44.18
71964;BME280;59834;52.124;5.422;2022-07-23T12:18:05;102056.09;;;23.79;45.27
71964;BME280;59834;52.124;5.422;2022-07-23T12:20:39;102050.75;;;23.79;45.39
71964;BME280;59834;52.124;5.422;2022-07-23T12:23:07;102056.41;;;23.76;45.57
71964;BME280;59834;52.124;5.422;2022-07-23T12:25:41;102045.78;;;23.48;45.01
71964;BME280;59834;52.124;5.422;2022-07-23T12:28:33;102052.31;;;23.36;45.49
71964;BME280;59834;52.124;5.422;2022-07-23T12:30:59;102044.16;;;23.56;47.39
71964;BME280;59834;52.124;5.422;2022-07-23T12:33:28;102044.88;;;23.58;46.35
71964;BME280;59834;52.124;5.422;2022-07-23T12:35:58;102040.88;;;23.62;45.40
71964;BME280;59834;52.124;5.422;2022-07-23T12:38:26;102044.22;;;23.99;45.34
71964;BME280;59834;52.124;5.422;2022-07-23T12:40:55;102036.25;;;24.34;44.40
71964;BME280;59834;52.124;5.422;2022-07-23T12:43:23;102022.84;;;24.34;43.97
71964;BME280;59834;52.124;5.422;2022-07-23T12:45:50;102037.66;;;24.20;43.75
71964;BME280;59834;52.124;5.422;2022-07-23T12:48:26;102022.31;;;24.22;43.91
71964;BME280;59834;52.124;5.422;2022-07-23T12:55:59;102033.38;;;24.61;43.47
71964;BME280;59834;52.124;5.422;2022-07-23T13:01:24;102028.97;;;24.78;43.27
71964;BME280;59834;52.124;5.422;2022-07-23T13:04:00;102026.63;;;24.75;42.69
71964;BME280;59834;52.124;5.422;2022-07-23T13:06:30;102027.72;;;24.64;43.41
71964;BME280;59834;52.124;5.422;2022-07-23T13:08:57;102019.44;;;24.41;44.13
71964;BME280;59834;52.124;5.422;2022-07-23T13:11:24;102023.41;;;24.11;44.95
71964;BME280;59834;52.124;5.422;2022-07-23T13:13:52;102025.38;;;24.01;44.65
71964;BME280;59834;52.124;5.422;2022-07-23T13:16:19;102024.28;;;23.94;45.49
71964;BME280;59834;52.124;5.422;2022-07-23T13:18:46;102031.38;;;24.03;45.68
71964;BME280;59834;52.124;5.422;2022-07-23T13:21:14;102031.03;;;23.98;44.51
71964;BME280;59834;52.124;5.422;2022-07-23T13:23:43;102021.59;;;23.94;45.24
71964;BME280;59834;52.124;5.422;2022-07-23T13:26:11;102022.50;;;24.03;46.50
71964;BME280;59834;52.124;5.422;2022-07-23T13:28:38;102031.69;;;24.00;45.86
71964;BME280;59834;52.124;5.422;2022-07-23T13:31:05;102021.25;;;23.89;44.96
71964;BME280;59834;52.124;5.422;2022-07-23T13:33:31;102018.72;;;23.87;45.90
71964;BME280;59834;52.124;5.422;2022-07-23T13:35:58;102019.63;;;24.22;45.83
71964;BME280;59834;52.124;5.422;2022-07-23T13:38:24;102012.59;;;24.21;43.89
71964;BME280;59834;52.124;5.422;2022-07-23T13:40:53;102011.53;;;24.14;44.96
71964;BME280;59834;52.124;5.422;2022-07-23T13:43:23;102010.13;;;24.54;43.47
71964;BME280;59834;52.124;5.422;2022-07-23T13:45:52;102011.22;;;24.77;42.20